Grover, NC (28073)

8:01 PM EDT on August 24, 2016 (GMT -0400)
Greyfield | | Change Station

Elev 850 ft 35.22 °N, 81.43 °W | Updated 13 minutes ago

Mostly Cloudy
Mostly Cloudy
83.7 °F
Feels Like 89 °F
N
0.0
Wind Variable Wind from South

Today
High -- | Low -- °F
--% Chance of Precip.
Yesterday
High -- | Low -- °F
Precip. -- in
Pressure 30.21 in
Visibility 10.0 miles
Clouds Mostly Cloudy 8000 ft
Heat Index 89 °F
Dew Point 71 °F
Humidity 66%
Rainfall 0.00 in
Snow Depth Not available.
6:52 AM 8:02 PM
Waning Gibbous, 52% visible
METAR KEHO 242340Z AUTO 00000KT 10SM BKN080 27/20 A3021 RMK AO2 T02740198
Pressure 30.21 in
Visibility 10.0 miles
Clouds Mostly Cloudy 8000 ft
Heat Index 89 °F
Dew Point 71 °F
Humidity 66%
Rainfall 0.00 in
Snow Depth Not available.
6:52 AM 8:02 PM
Waning Gibbous, 52% visible
METAR KEHO 242340Z AUTO 00000KT 10SM BKN080 27/20 A3021 RMK AO2 T02740198

10-Day Weather Forecast

Almanac

Astronomy

Aug. 24, 2016 Rise Set
Actual Time
Civil Twilight
Nautical Twilight
Astronomical Twilight
Moon
Length of Visible Light
Length of Day
Tomorrow will be .
, % of the Moon is Illuminated

Today's Extremes

State Highs State Lows

Community

WunderPhotos

Upload Photos

1,934,744 photos uploaded!

WunderBlog® & News

Nearby

Air Quality

  Air Quality AQ Index Pollutant
Not available.

Snow Depth

Station Depth Elevation

Earthquake Activity

City Distance Mag. Time & Date
Minimum magnitude displayed is 2.5.

Coastal Water Temperatures

Place Temperature

Stations

Nearby Weather Stations

Station Location Temp. Windchill Dew Point Humidity Wind Precip. Elev Updated Type
                   

Watches & Warnings

There are currently no watches in effect.